Altamont, UT

7:18 AM MDT on July 06, 2015 (GMT -0600)
Cougar Ridge Ranch | | Change Station
CLOSE
Current Station
Personal Weather Station
Location: Duchesne, UT
Elevation: 6959 ft
Nearby Weather Stations

Elev 6959 ft 40.18 °N, 110.64 °W | Updated 4 seconds ago

Clear
Clear
58.3 °F
Feels Like 58.3 °F
N
4.0
Wind Variable Wind from WNW
Gusts 6.0 mph

Today
High -- | Low -- °F
--% Chance of Precip.
Yesterday
High -- | Low -- °F
Precip. -- in
5:58 AM 8:54 PM
Waning Gibbous, 75% visible
Pressure 30.00 in
Visibility 10.0 miles
Clouds Few 5500 ft
Dew Point 50 °F
Humidity 73%
Rainfall 0.00 in
Snow Depth Not available.
UV 0.0 out of 12
Pollen 4.70 out of 12
Air Quality Not available.
Flu Activity Not available.
METAR KVEL 061253Z AUTO 28003KT 10SM FEW055 17/12 A3018 RMK AO2 SLP157 T01720122 $

More Conditions Fewer Conditions

Pressure 30.00 in
Visibility 10.0 miles
Clouds Few 5500 ft
Dew Point 50 °F
Humidity 73%
Rainfall 0.00 in
Snow Depth Not available.
UV 0.0 out of 12
Pollen 4.70 out of 12
Air Quality Not available.
Flu Activity Not available.
METAR KVEL 061253Z AUTO 28003KT 10SM FEW055 17/12 A3018 RMK AO2 SLP157 T01720122 $

More Conditions Fewer Conditions

10-Day Weather Forecast

×

Almanac

Astronomy

Jul. 06, 2015 Rise Set
Actual Time
Civil Twilight
Nautical Twilight
Astronomical Twilight
Moon
Length of Visible Light
Length of Day
Tomorrow will be .
, % of the Moon is Illuminated

Today's Extremes

State Highs State Lows

Community

WunderPhotos

Upload Photos

1,835,551 photos uploaded!

WunderBlogs® & News

Nearby

Air Quality

  Air Quality AQ Index Pollutant
Not available.

Snow Depth

Station Depth Elevation

Earthquake Activity

City Distance Mag. Time & Date
Minimum magnitude displayed is 2.5.

Coastal Water Temperatures

Place Temperature

Stations

Nearby Weather Stations

Station Location Temp. Windchill Dew Point Humidity Wind Precip. Elev Updated Type